createdAt,value
2023-01-22T00:01:13.583Z,28.13
2023-01-22T00:04:00.134Z,32.55
2023-01-22T00:06:46.088Z,27.58
2023-01-22T00:09:32.047Z,30.80
2023-01-22T00:12:17.961Z,36.78
2023-01-22T00:15:04.277Z,42.08
2023-01-22T00:17:50.349Z,32.95
2023-01-22T00:20:36.166Z,40.28
2023-01-22T00:23:22.924Z,35.25
2023-01-22T00:26:14.068Z,34.53
2023-01-22T00:29:00.346Z,32.83
2023-01-22T00:31:46.754Z,30.30
2023-01-22T00:34:34.095Z,29.85
2023-01-22T00:37:20.395Z,27.73
2023-01-22T00:40:07.282Z,27.80
2023-01-22T00:42:53.192Z,27.58
2023-01-22T00:45:39.998Z,23.52
2023-01-22T00:48:25.924Z,19.30
2023-01-22T00:51:13.255Z,22.55
2023-01-22T00:53:59.254Z,20.45
2023-01-22T00:56:45.424Z,21.05
2023-01-22T00:59:31.228Z,19.60
2023-01-22T01:02:17.269Z,20.52
2023-01-22T01:05:03.714Z,22.92
2023-01-22T01:07:49.428Z,20.88
2023-01-22T01:10:35.374Z,19.05
2023-01-22T01:13:21.338Z,19.45
2023-01-22T01:16:11.195Z,20.52
2023-01-22T01:19:05.707Z,17.48
2023-01-22T01:21:51.437Z,20.20
2023-01-22T01:24:37.291Z,19.38
2023-01-22T01:27:23.050Z,20.42
2023-01-22T01:30:10.452Z,20.02
2023-01-22T01:32:56.509Z,21.00
2023-01-22T01:35:42.491Z,15.82
2023-01-22T01:38:28.350Z,16.75
2023-01-22T01:41:16.868Z,14.75
2023-01-22T01:44:16.124Z,18.17
2023-01-22T01:47:07.679Z,17.35
2023-01-22T01:49:53.681Z,15.98
2023-01-22T01:52:39.965Z,15.23
2023-01-22T01:55:28.719Z,18.92
2023-01-22T01:58:21.490Z,19.20
2023-01-22T02:01:17.666Z,17.48
2023-01-22T02:04:04.060Z,22.15
2023-01-22T02:06:50.212Z,16.75
2023-01-22T02:09:36.790Z,18.38
2023-01-22T02:12:22.833Z,16.38
2023-01-22T02:15:09.611Z,19.77
2023-01-22T02:17:55.649Z,20.98
2023-01-22T02:20:50.006Z,19.92
2023-01-22T02:23:35.722Z,19.60
2023-01-22T02:26:23.089Z,18.83
2023-01-22T02:29:11.189Z,20.88
2023-01-22T02:31:57.354Z,17.48
2023-01-22T02:34:43.034Z,17.02
2023-01-22T02:37:28.979Z,17.50
2023-01-22T02:40:15.410Z,21.73
2023-01-22T02:43:02.148Z,16.67
2023-01-22T02:45:48.175Z,16.33
2023-01-22T02:48:33.911Z,14.20
2023-01-22T02:51:19.899Z,14.07
2023-01-22T02:54:08.259Z,16.40
2023-01-22T02:56:54.171Z,13.15
2023-01-22T02:59:40.001Z,10.27
2023-01-22T03:02:28.964Z,8.88
2023-01-22T03:05:15.657Z,10.43
2023-01-22T03:08:01.657Z,9.30
2023-01-22T03:10:48.291Z,8.23
2023-01-22T03:13:52.832Z,10.73
2023-01-22T03:16:57.663Z,5.38
2023-01-22T03:20:02.411Z,6.60
2023-01-22T03:22:48.652Z,6.78
2023-01-22T03:25:34.966Z,5.28
2023-01-22T03:28:21.815Z,6.97
2023-01-22T03:31:15.073Z,14.38
2023-01-22T03:34:01.405Z,33.33
2023-01-22T03:36:48.455Z,72.40
2023-01-22T03:39:35.486Z,108.85
2023-01-22T03:42:25.297Z,105.43
2023-01-22T03:45:12.210Z,100.18
2023-01-22T03:47:58.977Z,94.85
2023-01-22T03:50:52.287Z,97.80
2023-01-22T03:53:39.583Z,96.88
2023-01-22T03:56:26.934Z,88.13
2023-01-22T03:59:18.154Z,107.35
2023-01-22T04:02:04.631Z,74.20
2023-01-22T04:04:56.585Z,71.28
2023-01-22T04:07:43.196Z,61.03
2023-01-22T04:10:30.077Z,62.05
2023-01-22T04:13:18.623Z,60.83
2023-01-22T04:16:07.803Z,62.30
2023-01-22T04:19:15.070Z,50.15
2023-01-22T04:22:27.738Z,50.35
2023-01-22T04:25:16.805Z,41.05
2023-01-22T04:28:05.594Z,43.88
2023-01-22T04:30:56.306Z,42.63
2023-01-22T04:34:03.596Z,36.10
2023-01-22T04:36:52.983Z,32.92
2023-01-22T04:39:44.307Z,35.50
2023-01-22T04:42:31.369Z,41.00
2023-01-22T04:45:19.798Z,33.38
2023-01-22T04:48:09.226Z,32.67
2023-01-22T04:50:58.270Z,34.75
2023-01-22T04:53:48.741Z,46.50
2023-01-22T04:56:36.493Z,38.00
2023-01-22T04:59:23.809Z,43.30
2023-01-22T05:02:10.935Z,42.38
2023-01-22T05:04:58.173Z,44.22
2023-01-22T05:07:45.389Z,53.38
2023-01-22T05:10:32.775Z,49.70
2023-01-22T05:13:21.333Z,39.65
2023-01-22T05:16:08.856Z,44.53
2023-01-22T05:18:56.307Z,46.67
2023-01-22T05:21:44.701Z,46.20
2023-01-22T05:24:36.093Z,49.97
2023-01-22T05:27:23.219Z,48.40
2023-01-22T05:30:20.965Z,46.90
2023-01-22T05:33:19.349Z,43.47
2023-01-22T05:36:09.593Z,41.58
2023-01-22T05:39:02.172Z,47.28
2023-01-22T05:41:49.858Z,46.78
2023-01-22T05:44:38.516Z,54.22
2023-01-22T05:47:25.952Z,50.70
2023-01-22T05:50:29.304Z,53.22
2023-01-22T05:53:24.789Z,53.75
2023-01-22T05:56:13.205Z,52.58
2023-01-22T05:59:01.481Z,50.22
2023-01-22T06:01:49.673Z,56.42
2023-01-22T06:04:37.380Z,67.53
2023-01-22T06:07:34.308Z,68.57
2023-01-22T06:10:22.193Z,92.30
2023-01-22T06:13:09.738Z,79.50
2023-01-22T06:15:57.459Z,79.45
2023-01-22T06:19:05.557Z,81.35
2023-01-22T06:22:09.961Z,74.43
2023-01-22T06:25:09.955Z,64.47
2023-01-22T06:28:27.593Z,58.22
2023-01-22T06:31:15.270Z,60.63
2023-01-22T06:34:02.687Z,59.60
2023-01-22T06:36:50.183Z,83.15
2023-01-22T06:39:38.790Z,97.32
2023-01-22T06:42:52.254Z,79.47
2023-01-22T06:45:39.655Z,87.72
2023-01-22T06:48:29.666Z,88.45
2023-01-22T06:51:18.200Z,77.03
2023-01-22T06:54:06.153Z,76.05
2023-01-22T06:56:55.041Z,80.78
2023-01-22T06:59:44.625Z,80.57
2023-01-22T07:02:31.986Z,72.85
2023-01-22T07:05:23.149Z,92.88
2023-01-22T07:08:18.306Z,79.40
2023-01-22T07:11:07.890Z,74.13
2023-01-22T07:13:55.302Z,73.50
2023-01-22T07:16:42.743Z,78.85
2023-01-22T07:19:30.269Z,77.40
2023-01-22T07:22:17.311Z,80.03
2023-01-22T07:25:05.285Z,73.28
2023-01-22T07:27:53.894Z,77.28
2023-01-22T07:30:43.746Z,71.88
2023-01-22T07:33:29.721Z,93.47
2023-01-22T07:36:15.531Z,87.55
2023-01-22T07:39:05.671Z,79.63
2023-01-22T07:41:51.544Z,82.78
2023-01-22T07:44:40.410Z,107.60
2023-01-22T07:47:26.337Z,77.65
2023-01-22T07:50:12.389Z,74.05
2023-01-22T07:52:58.336Z,76.18
2023-01-22T07:55:44.475Z,76.32
2023-01-22T07:58:30.603Z,94.40
2023-01-22T08:01:17.133Z,101.20
2023-01-22T08:04:03.362Z,92.57
2023-01-22T08:06:49.199Z,93.80
2023-01-22T08:09:36.247Z,93.78
2023-01-22T08:12:22.519Z,100.70
2023-01-22T08:15:09.296Z,108.13
2023-01-22T08:17:55.192Z,95.80
2023-01-22T08:20:41.093Z,99.78
2023-01-22T08:23:27.032Z,92.20
2023-01-22T08:26:13.252Z,94.70
2023-01-22T08:28:59.101Z,80.97
2023-01-22T08:31:44.870Z,84.30
2023-01-22T08:34:30.702Z,84.05
2023-01-22T08:37:16.436Z,80.03
2023-01-22T08:40:02.218Z,82.30
2023-01-22T08:42:52.557Z,84.43
2023-01-22T08:45:38.740Z,93.07
2023-01-22T08:48:24.651Z,90.35
2023-01-22T08:51:11.770Z,92.22
2023-01-22T08:53:57.679Z,92.45
2023-01-22T08:56:43.738Z,89.47
2023-01-22T08:59:31.121Z,85.53
2023-01-22T09:02:17.188Z,86.70
2023-01-22T09:05:03.062Z,88.82
2023-01-22T09:07:49.027Z,79.22
2023-01-22T09:10:34.841Z,84.22
2023-01-22T09:13:20.998Z,75.20
2023-01-22T09:16:10.946Z,75.10
2023-01-22T09:18:57.101Z,85.95
2023-01-22T09:21:43.018Z,79.43
2023-01-22T09:24:28.877Z,79.72
2023-01-22T09:27:14.738Z,96.75
2023-01-22T09:30:00.683Z,78.95
2023-01-22T09:32:46.555Z,67.88
2023-01-22T09:35:32.345Z,69.00
2023-01-22T09:38:21.023Z,69.63
2023-01-22T09:43:37.409Z,79.35
2023-01-22T09:46:48.248Z,49.83
2023-01-22T09:49:57.664Z,53.20
2023-01-22T09:52:43.904Z,53.72
2023-01-22T09:55:51.534Z,53.78
2023-01-22T09:58:37.535Z,57.35
2023-01-22T10:01:23.682Z,60.47
2023-01-22T10:04:22.088Z,59.20
2023-01-22T10:07:13.166Z,52.28
2023-01-22T10:10:07.065Z,47.17
2023-01-22T10:13:09.552Z,42.90
2023-01-22T10:15:56.510Z,40.67
2023-01-22T10:18:52.196Z,35.20
2023-01-22T10:21:43.961Z,30.65
2023-01-22T10:24:30.313Z,31.20
2023-01-22T10:27:17.776Z,33.97
2023-01-22T10:30:23.245Z,36.17
2023-01-22T10:33:17.204Z,26.65
2023-01-22T10:36:04.678Z,43.60
2023-01-22T10:38:50.870Z,31.63
2023-01-22T10:41:36.644Z,28.83
2023-01-22T10:44:25.445Z,34.38
2023-01-22T10:47:22.473Z,27.45
2023-01-22T10:50:16.342Z,32.08
2023-01-22T10:53:03.051Z,26.98
2023-01-22T10:55:58.181Z,38.53
2023-01-22T10:58:48.130Z,22.90
2023-01-22T11:01:37.980Z,33.15
2023-01-22T11:04:28.836Z,34.60
2023-01-22T11:07:20.132Z,29.98
2023-01-22T11:10:38.220Z,19.17
2023-01-22T11:14:05.694Z,22.85
2023-01-22T11:16:52.392Z,22.50
2023-01-22T11:19:47.843Z,23.40
2023-01-22T11:22:37.836Z,21.52
2023-01-22T11:25:23.877Z,12.80
2023-01-22T11:28:44.305Z,15.25
2023-01-22T11:31:42.549Z,13.90
2023-01-22T11:34:50.457Z,21.83
2023-01-22T11:38:10.477Z,24.42
2023-01-22T11:41:21.795Z,29.30
2023-01-22T11:44:22.052Z,28.05
2023-01-22T11:47:20.451Z,35.97
2023-01-22T11:50:09.573Z,35.47
2023-01-22T11:53:24.678Z,42.60
2023-01-22T11:56:32.109Z,33.97
2023-01-22T11:59:27.419Z,31.30
2023-01-22T12:02:32.191Z,27.60
2023-01-22T12:05:43.264Z,25.58
2023-01-22T12:08:47.575Z,26.73
2023-01-22T12:12:06.090Z,28.98
2023-01-22T12:15:01.202Z,44.35
2023-01-22T12:18:06.138Z,45.05
2023-01-22T12:21:07.233Z,35.60
2023-01-22T12:23:59.267Z,34.85
2023-01-22T12:26:52.425Z,33.03
2023-01-22T12:29:54.263Z,34.90
2023-01-22T12:32:43.262Z,39.10
2023-01-22T12:35:30.700Z,27.13
2023-01-22T12:38:42.548Z,23.65
2023-01-22T12:41:41.314Z,27.60
2023-01-22T12:44:36.149Z,32.80
2023-01-22T12:47:25.288Z,23.45
2023-01-22T12:50:20.769Z,29.73
2023-01-22T12:53:29.261Z,21.50
2023-01-22T12:56:15.189Z,22.60
2023-01-22T12:59:01.068Z,21.00
2023-01-22T13:01:46.991Z,20.20
2023-01-22T13:04:33.642Z,16.35
2023-01-22T13:07:22.648Z,14.80
2023-01-22T13:10:29.419Z,22.38
2023-01-22T13:13:40.412Z,19.20
2023-01-22T13:16:35.504Z,20.17
2023-01-22T13:19:24.565Z,23.92
2023-01-22T13:22:15.497Z,22.75
2023-01-22T13:25:01.314Z,25.00
2023-01-22T13:27:48.440Z,27.48
2023-01-22T13:30:34.922Z,25.58
2023-01-22T13:33:20.826Z,32.95
2023-01-22T13:36:11.122Z,38.97
2023-01-22T13:38:58.912Z,43.78
2023-01-22T13:41:44.873Z,54.15
2023-01-22T13:44:40.504Z,35.85
2023-01-22T13:47:32.986Z,46.78
2023-01-22T13:50:21.117Z,32.22
2023-01-22T13:53:06.839Z,27.77
2023-01-22T13:55:52.921Z,38.40
2023-01-22T13:58:48.371Z,27.13
2023-01-22T14:01:37.115Z,30.85
2023-01-22T14:04:34.782Z,29.83
2023-01-22T14:07:36.519Z,29.70
2023-01-22T14:10:24.637Z,34.22
2023-01-22T14:13:13.447Z,33.65
2023-01-22T14:16:02.046Z,44.90
2023-01-22T14:18:48.051Z,32.20
2023-01-22T14:21:34.440Z,31.30
2023-01-22T14:24:20.357Z,24.08
2023-01-22T14:27:07.170Z,40.00
2023-01-22T14:29:53.954Z,39.58
2023-01-22T14:32:40.793Z,38.13
2023-01-22T14:35:27.127Z,28.98
2023-01-22T14:38:13.289Z,32.20
2023-01-22T14:40:59.259Z,38.10
2023-01-22T14:43:45.028Z,42.28
2023-01-22T14:46:30.854Z,35.95
2023-01-22T14:49:16.757Z,34.00
2023-01-22T14:52:03.034Z,36.72
2023-01-22T14:54:50.564Z,34.75
2023-01-22T14:57:36.669Z,31.48
2023-01-22T15:00:22.755Z,39.70
2023-01-22T15:03:08.632Z,46.13
2023-01-22T15:05:54.431Z,45.88
2023-01-22T15:08:40.552Z,36.67
2023-01-22T15:11:26.522Z,34.90
2023-01-22T15:14:12.542Z,43.33
2023-01-22T15:16:58.430Z,39.67
2023-01-22T15:19:44.273Z,102.45
2023-01-22T15:22:30.108Z,66.05
2023-01-22T15:25:16.122Z,81.78
2023-01-22T15:28:02.983Z,111.03
2023-01-22T15:30:50.827Z,84.22
2023-01-22T15:33:37.817Z,84.00
2023-01-22T15:36:24.307Z,51.13
2023-01-22T15:39:10.135Z,39.33
2023-01-22T15:41:56.125Z,58.38
2023-01-22T15:44:42.152Z,71.63
2023-01-22T15:47:27.862Z,82.90
2023-01-22T15:50:20.225Z,44.63
2023-01-22T15:53:06.076Z,66.38
2023-01-22T15:55:51.757Z,37.35
2023-01-22T15:58:37.759Z,35.42
2023-01-22T16:01:25.742Z,35.67
2023-01-22T16:04:11.498Z,30.58
2023-01-22T16:06:57.344Z,35.00
2023-01-22T16:09:43.289Z,30.65
2023-01-22T16:12:31.177Z,40.40
2023-01-22T16:15:17.492Z,37.08
2023-01-22T16:18:03.804Z,37.55
2023-01-22T16:20:49.703Z,35.47
2023-01-22T16:23:39.992Z,35.63
2023-01-22T16:26:29.371Z,29.13
2023-01-22T16:29:15.606Z,35.83
2023-01-22T16:32:01.536Z,41.60
2023-01-22T16:34:47.475Z,37.33
2023-01-22T16:37:33.338Z,32.60
2023-01-22T16:40:19.370Z,26.10
2023-01-22T16:43:05.751Z,35.40
2023-01-22T16:45:51.778Z,33.40
2023-01-22T16:48:37.744Z,39.25
2023-01-22T16:51:25.156Z,32.80
2023-01-22T16:54:31.872Z,33.00
2023-01-22T16:57:19.384Z,31.02
2023-01-22T17:00:06.120Z,31.75
2023-01-22T17:02:52.439Z,30.60
2023-01-22T17:05:38.038Z,38.35
2023-01-22T17:08:24.408Z,40.40
2023-01-22T17:11:15.682Z,36.25
2023-01-22T17:14:01.812Z,32.33
2023-01-22T17:16:48.511Z,30.23
2023-01-22T17:19:35.948Z,31.88
2023-01-22T17:22:21.833Z,32.88
2023-01-22T17:25:08.327Z,46.67
2023-01-22T17:27:54.499Z,48.03
2023-01-22T17:30:40.407Z,51.20
2023-01-22T17:33:26.755Z,54.65
2023-01-22T17:36:15.572Z,51.05
2023-01-22T17:39:01.796Z,41.03
2023-01-22T17:41:47.757Z,40.47
2023-01-22T17:44:34.942Z,44.22
2023-01-22T17:47:21.313Z,44.53
2023-01-22T17:50:08.835Z,40.03
2023-01-22T17:52:55.879Z,42.92
2023-01-22T17:55:41.617Z,48.67
2023-01-22T17:58:27.423Z,54.33
2023-01-22T18:01:15.165Z,57.33
2023-01-22T18:04:03.554Z,45.03
2023-01-22T18:06:50.055Z,53.85
2023-01-22T18:09:36.248Z,55.63
2023-01-22T18:12:22.190Z,53.92
2023-01-22T18:15:08.412Z,43.53
2023-01-22T18:17:54.258Z,45.78
2023-01-22T18:20:44.314Z,36.55
2023-01-22T18:23:30.397Z,32.53
2023-01-22T18:26:19.867Z,37.75
2023-01-22T18:29:06.259Z,34.78
2023-01-22T18:31:52.435Z,27.88
2023-01-22T18:34:38.663Z,38.83
2023-01-22T18:37:24.455Z,38.88
2023-01-22T18:40:10.849Z,37.05
2023-01-22T18:42:57.349Z,41.00
2023-01-22T18:45:43.519Z,31.95
2023-01-22T18:48:29.480Z,29.52
2023-01-22T18:51:15.489Z,39.85
2023-01-22T18:54:03.012Z,36.20
2023-01-22T18:56:49.745Z,43.00
2023-01-22T18:59:35.995Z,34.70
2023-01-22T19:02:22.111Z,41.10
2023-01-22T19:05:08.513Z,39.63
2023-01-22T19:07:54.781Z,39.28
2023-01-22T19:10:40.709Z,43.20
2023-01-22T19:13:26.483Z,52.75
2023-01-22T19:16:14.940Z,37.90
2023-01-22T19:19:03.931Z,39.88
2023-01-22T19:21:54.796Z,43.83
2023-01-22T19:24:40.894Z,47.25
2023-01-22T19:27:26.731Z,34.13
2023-01-22T19:30:12.811Z,40.08
2023-01-22T19:32:58.884Z,39.13
2023-01-22T19:35:49.245Z,36.30
2023-01-22T19:38:35.294Z,37.83
2023-01-22T19:41:23.343Z,44.97
2023-01-22T19:44:10.911Z,40.45
2023-01-22T19:46:57.473Z,48.38
2023-01-22T19:49:43.874Z,45.30
2023-01-22T19:52:29.950Z,40.88
2023-01-22T19:55:18.451Z,37.30
2023-01-22T19:58:05.000Z,38.50
2023-01-22T20:00:51.540Z,33.67
2023-01-22T20:03:37.768Z,36.70
2023-01-22T20:06:24.049Z,41.63
2023-01-22T20:09:11.363Z,79.57
2023-01-22T20:11:58.273Z,107.45
2023-01-22T20:14:44.503Z,100.07
2023-01-22T20:17:30.602Z,92.35
2023-01-22T20:20:16.663Z,64.35
2023-01-22T20:23:02.944Z,81.63
2023-01-22T20:25:50.190Z,45.15
2023-01-22T20:28:36.639Z,45.55
2023-01-22T20:31:23.629Z,41.50
2023-01-22T20:34:09.920Z,37.83
2023-01-22T20:36:56.096Z,40.15
2023-01-22T20:39:41.945Z,47.75
2023-01-22T20:42:28.416Z,44.95
2023-01-22T20:45:14.720Z,38.67
2023-01-22T20:48:00.662Z,24.45
2023-01-22T20:50:46.363Z,14.38
2023-01-22T20:53:32.062Z,11.38
2023-01-22T20:56:25.425Z,10.48
2023-01-22T20:59:17.081Z,8.20
2023-01-22T21:02:03.059Z,7.90
2023-01-22T21:04:53.265Z,10.02
2023-01-22T21:07:39.621Z,6.80
2023-01-22T21:10:25.455Z,8.13
2023-01-22T21:13:12.665Z,10.48
2023-01-22T21:16:07.005Z,8.05
2023-01-22T21:18:55.044Z,8.45
2023-01-22T21:21:40.879Z,16.90
2023-01-22T21:24:27.726Z,15.43
2023-01-22T21:27:13.492Z,11.15
2023-01-22T21:29:59.309Z,14.50
2023-01-22T21:32:45.205Z,18.25
2023-01-22T21:35:31.223Z,22.42
2023-01-22T21:38:17.201Z,20.42
2023-01-22T21:41:07.796Z,22.00
2023-01-22T21:44:12.759Z,20.77
2023-01-22T21:46:59.212Z,23.13
2023-01-22T21:49:47.025Z,22.35
2023-01-22T21:52:33.266Z,22.60
2023-01-22T21:55:21.238Z,22.35
2023-01-22T21:58:08.942Z,23.00
2023-01-22T22:00:55.824Z,20.58
2023-01-22T22:03:42.064Z,18.75
2023-01-22T22:06:32.246Z,24.98
2023-01-22T22:09:21.933Z,12.90
2023-01-22T22:12:07.960Z,11.55
2023-01-22T22:14:53.803Z,8.65
2023-01-22T22:17:39.708Z,12.52
2023-01-22T22:20:25.560Z,11.07
2023-01-22T22:23:11.436Z,9.10
2023-01-22T22:25:57.834Z,8.68
2023-01-22T22:28:43.809Z,15.07
2023-01-22T22:31:29.685Z,10.52
2023-01-22T22:34:15.546Z,13.82
2023-01-22T22:37:01.534Z,13.23
2023-01-22T22:39:47.527Z,10.43
2023-01-22T22:42:33.796Z,11.77
2023-01-22T22:45:19.664Z,6.93
2023-01-22T22:48:05.777Z,8.63
2023-01-22T22:50:51.821Z,11.25
2023-01-22T22:53:37.635Z,15.65
2023-01-22T22:56:23.756Z,11.43
2023-01-22T22:59:10.025Z,11.55
2023-01-22T23:01:55.990Z,9.68
2023-01-22T23:04:41.905Z,11.95
2023-01-22T23:07:27.774Z,9.25
2023-01-22T23:10:28.810Z,12.23
2023-01-22T23:13:15.007Z,12.07
2023-01-22T23:16:02.974Z,11.45
2023-01-22T23:18:51.357Z,11.10
2023-01-22T23:21:41.012Z,12.88
2023-01-22T23:24:27.918Z,8.85
2023-01-22T23:27:14.224Z,8.48
2023-01-22T23:30:00.013Z,13.55
2023-01-22T23:32:45.780Z,12.80
2023-01-22T23:35:31.560Z,8.77
2023-01-22T23:38:17.249Z,8.02
2023-01-22T23:41:05.077Z,6.90
2023-01-22T23:43:51.358Z,6.60
2023-01-22T23:46:37.661Z,7.95
2023-01-22T23:49:23.850Z,11.73
2023-01-22T23:52:09.761Z,12.70
2023-01-22T23:54:57.999Z,12.25
2023-01-22T23:57:44.122Z,10.85
